Polar, Wisconsin
Current Conditions -  °F | °C
As of 3:15 AM on Saturday 01 Nov 2014 (Local Time) from KAIG Reporting Station
Clear Clear  
Wind Chill: 20°   Ceiling: Unl
Heat Index: 20°   Visibility: 10mi
Dew Point: 19°   Wind: 0mph
Humidity: 94%   Direction: NA
Pressure: 30.42"   Gusts: NA
Location:  45.2253°N, 88.9533°W
Report Text: KAIG 010815Z AUTO 00000KT 10SM CLR M06/M07 A3042 RMK AO2 T10651073
Loading
Personal Weather Stations






























Interactive Weather Map
Tropical Storm Tracking
New forecast layout! Learn more

10-Day Weather Forecast

Advertisements
Track Severe Weather on mobile